KCGZ

Casa Grande Municipal Airport

Casa Grande, Arizona, USA
METAR KCGZ 252156Z AUTO 17009KT 10SM CLR 37/02 A2988 RMK AO2 SLP103 T03670022 $
Observed Flight Rules
May-25 @ 21:56 UTC (28 minutes ago) Visual Flight Rules
Wind Visibility Clouds
170° at 9 knots 10 miles
  • Clear skies
Temperatures Readings
Current 37°C / 99°F
Dewpoint 2°C / 36°F
Humidity 11%
Altimeter 29.88" Hg
Pressure 1010.3 hPa
Elevation 446
METAR KCGZ 252156Z AUTO 17009KT 10SM CLR 37/02 A2988 RMK AO2 SLP103 T03670022 $
Observed Flight Rules
May-25 @ 21:56 UTC
(28 minutes ago)
VFR
Wind Visibility
170° at 9 knots 10 miles
Clouds
  • Clear skies
Temperature Dewpoint
37°C / 99°F 2°C / 36°F
Humidity Altimeter Pressure
11% 29.88" Hg 1010.3 hPa